sensor_id;sensor_type;location;lat;lon;timestamp;pressure;altitude;pressure_sealevel;temperature;humidity
46430;BME280;32131;53.454;-6.180;2023-03-03T00:01:04;102985.28;;;6.45;65.79
46430;BME280;32131;53.454;-6.180;2023-03-03T00:03:33;102979.38;;;6.46;65.52
46430;BME280;32131;53.454;-6.180;2023-03-03T00:06:02;102991.44;;;6.47;65.83
46430;BME280;32131;53.454;-6.180;2023-03-03T00:08:31;102988.88;;;6.47;66.31
46430;BME280;32131;53.454;-6.180;2023-03-03T00:11:00;102981.16;;;6.47;66.26
46430;BME280;32131;53.454;-6.180;2023-03-03T00:13:31;102989.75;;;6.48;66.32
46430;BME280;32131;53.454;-6.180;2023-03-03T00:16:13;102988.88;;;6.47;66.46
46430;BME280;32131;53.454;-6.180;2023-03-03T00:18:43;102988.09;;;6.48;66.51
46430;BME280;32131;53.454;-6.180;2023-03-03T00:21:22;102985.38;;;6.47;66.38
46430;BME280;32131;53.454;-6.180;2023-03-03T00:23:52;102991.53;;;6.49;65.99
46430;BME280;32131;53.454;-6.180;2023-03-03T00:26:26;102990.66;;;6.48;66.04
46430;BME280;32131;53.454;-6.180;2023-03-03T00:28:56;102993.22;;;6.48;66.00
46430;BME280;32131;53.454;-6.180;2023-03-03T00:31:29;102993.09;;;6.47;65.82
46430;BME280;32131;53.454;-6.180;2023-03-03T00:34:15;102982.72;;;6.45;65.92
46430;BME280;32131;53.454;-6.180;2023-03-03T00:36:48;102987.78;;;6.43;65.92
46430;BME280;32131;53.454;-6.180;2023-03-03T00:39:25;102986.75;;;6.41;65.93
46430;BME280;32131;53.454;-6.180;2023-03-03T00:41:56;102985.66;;;6.38;66.21
46430;BME280;32131;53.454;-6.180;2023-03-03T00:44:38;102989.00;;;6.37;66.44
46430;BME280;32131;53.454;-6.180;2023-03-03T00:47:26;102984.78;;;6.37;66.51
46430;BME280;32131;53.454;-6.180;2023-03-03T00:50:29;102990.09;;;6.40;66.50
46430;BME280;32131;53.454;-6.180;2023-03-03T00:53:06;102985.66;;;6.38;66.35
46430;BME280;32131;53.454;-6.180;2023-03-03T00:55:37;102984.56;;;6.34;66.40
46430;BME280;32131;53.454;-6.180;2023-03-03T00:58:08;102977.56;;;6.32;66.57
46430;BME280;32131;53.454;-6.180;2023-03-03T01:00:37;102972.19;;;6.28;66.79
46430;BME280;32131;53.454;-6.180;2023-03-03T01:03:07;102978.00;;;6.26;66.63
46430;BME280;32131;53.454;-6.180;2023-03-03T01:05:35;102976.13;;;6.23;66.85
46430;BME280;32131;53.454;-6.180;2023-03-03T01:08:04;102975.34;;;6.24;67.04
46430;BME280;32131;53.454;-6.180;2023-03-03T01:10:36;102977.00;;;6.24;67.07
46430;BME280;32131;53.454;-6.180;2023-03-03T01:13:06;102982.25;;;6.25;67.24
46430;BME280;32131;53.454;-6.180;2023-03-03T01:15:37;102976.31;;;6.26;67.23
46430;BME280;32131;53.454;-6.180;2023-03-03T01:18:06;102982.38;;;6.27;67.04
46430;BME280;32131;53.454;-6.180;2023-03-03T01:20:34;102985.94;;;6.29;67.20
46430;BME280;32131;53.454;-6.180;2023-03-03T01:23:02;102980.91;;;6.31;67.26
46430;BME280;32131;53.454;-6.180;2023-03-03T01:25:31;102979.22;;;6.31;67.18
46430;BME280;32131;53.454;-6.180;2023-03-03T01:27:59;102981.00;;;6.32;67.16
46430;BME280;32131;53.454;-6.180;2023-03-03T01:30:27;102988.81;;;6.34;67.37
46430;BME280;32131;53.454;-6.180;2023-03-03T01:32:57;102988.91;;;6.35;67.33
46430;BME280;32131;53.454;-6.180;2023-03-03T01:35:25;102989.00;;;6.37;67.41
46430;BME280;32131;53.454;-6.180;2023-03-03T01:37:56;102987.44;;;6.39;67.48
46430;BME280;32131;53.454;-6.180;2023-03-03T01:40:26;102992.69;;;6.40;67.47
46430;BME280;32131;53.454;-6.180;2023-03-03T01:42:55;102989.22;;;6.40;67.47
46430;BME280;32131;53.454;-6.180;2023-03-03T01:45:28;102991.91;;;6.41;67.59
46430;BME280;32131;53.454;-6.180;2023-03-03T01:48:02;102989.44;;;6.43;67.64
46430;BME280;32131;53.454;-6.180;2023-03-03T01:50:37;102989.44;;;6.43;67.49
46430;BME280;32131;53.454;-6.180;2023-03-03T01:53:12;102984.97;;;6.40;67.66
46430;BME280;32131;53.454;-6.180;2023-03-03T01:55:43;102988.44;;;6.41;67.76
46430;BME280;32131;53.454;-6.180;2023-03-03T01:58:15;102986.66;;;6.40;67.77
46430;BME280;32131;53.454;-6.180;2023-03-03T02:00:48;102986.66;;;6.40;67.83
46430;BME280;32131;53.454;-6.180;2023-03-03T02:03:19;102991.03;;;6.41;68.01
46430;BME280;32131;53.454;-6.180;2023-03-03T02:05:51;102988.44;;;6.41;68.04
46430;BME280;32131;53.454;-6.180;2023-03-03T02:08:25;102988.56;;;6.42;68.17
46430;BME280;32131;53.454;-6.180;2023-03-03T02:10:56;102994.69;;;6.44;68.25
46430;BME280;32131;53.454;-6.180;2023-03-03T02:13:24;102992.91;;;6.43;68.28
46430;BME280;32131;53.454;-6.180;2023-03-03T02:15:52;102993.78;;;6.44;68.49
46430;BME280;32131;53.454;-6.180;2023-03-03T02:18:23;102989.56;;;6.44;68.40
46430;BME280;32131;53.454;-6.180;2023-03-03T02:20:57;102985.38;;;6.47;68.44
46430;BME280;32131;53.454;-6.180;2023-03-03T02:23:32;102994.00;;;6.47;68.38
46430;BME280;32131;53.454;-6.180;2023-03-03T02:26:09;102993.09;;;6.47;68.71
46430;BME280;32131;53.454;-6.180;2023-03-03T02:28:39;102981.06;;;6.45;68.65
46430;BME280;32131;53.454;-6.180;2023-03-03T02:31:09;102990.53;;;6.47;68.57
46430;BME280;32131;53.454;-6.180;2023-03-03T02:33:39;102987.06;;;6.46;68.73
46430;BME280;32131;53.454;-6.180;2023-03-03T02:36:14;102990.44;;;6.45;68.65
46430;BME280;32131;53.454;-6.180;2023-03-03T02:38:46;102988.66;;;6.44;68.93
46430;BME280;32131;53.454;-6.180;2023-03-03T02:41:27;102996.16;;;6.41;69.15
46430;BME280;32131;53.454;-6.180;2023-03-03T02:43:58;102994.16;;;6.37;69.24
46430;BME280;32131;53.454;-6.180;2023-03-03T02:46:28;103002.63;;;6.36;69.49
46430;BME280;32131;53.454;-6.180;2023-03-03T02:48:56;102997.16;;;6.31;69.72
46430;BME280;32131;53.454;-6.180;2023-03-03T02:51:24;103005.66;;;6.30;69.94
46430;BME280;32131;53.454;-6.180;2023-03-03T02:53:53;102999.53;;;6.28;69.79
46430;BME280;32131;53.454;-6.180;2023-03-03T02:56:22;102995.97;;;6.26;69.95
46430;BME280;32131;53.454;-6.180;2023-03-03T02:58:50;103002.66;;;6.24;70.18
46430;BME280;32131;53.454;-6.180;2023-03-03T03:01:19;103002.47;;;6.21;70.26
46430;BME280;32131;53.454;-6.180;2023-03-03T03:03:47;103001.34;;;6.17;70.43
46430;BME280;32131;53.454;-6.180;2023-03-03T03:06:16;103007.16;;;6.14;70.59
46430;BME280;32131;53.454;-6.180;2023-03-03T03:08:44;102993.44;;;6.14;70.45
46430;BME280;32131;53.454;-6.180;2023-03-03T03:11:12;103001.94;;;6.13;70.91
46430;BME280;32131;53.454;-6.180;2023-03-03T03:13:42;103000.91;;;6.11;70.63
46430;BME280;32131;53.454;-6.180;2023-03-03T03:16:10;102999.25;;;6.11;71.06
46430;BME280;32131;53.454;-6.180;2023-03-03T03:18:38;102994.13;;;6.11;71.08
46430;BME280;32131;53.454;-6.180;2023-03-03T03:21:08;102995.00;;;6.12;70.95
46430;BME280;32131;53.454;-6.180;2023-03-03T03:23:36;102984.44;;;6.07;71.57
46430;BME280;32131;53.454;-6.180;2023-03-03T03:26:05;102989.03;;;6.00;71.83
46430;BME280;32131;53.454;-6.180;2023-03-03T03:28:34;102987.69;;;5.93;72.07
46430;BME280;32131;53.454;-6.180;2023-03-03T03:31:05;102985.66;;;5.89;72.42
46430;BME280;32131;53.454;-6.180;2023-03-03T03:33:34;102985.56;;;5.87;72.45
46430;BME280;32131;53.454;-6.180;2023-03-03T03:36:02;102984.00;;;5.89;72.44
46430;BME280;32131;53.454;-6.180;2023-03-03T03:38:33;102983.31;;;5.92;72.48
46430;BME280;32131;53.454;-6.180;2023-03-03T03:41:03;102991.91;;;5.92;72.45
46430;BME280;32131;53.454;-6.180;2023-03-03T03:43:32;102984.00;;;5.89;72.38
46430;BME280;32131;53.454;-6.180;2023-03-03T03:46:00;102984.88;;;5.90;72.71
46430;BME280;32131;53.454;-6.180;2023-03-03T03:48:30;102984.78;;;5.88;72.68
46430;BME280;32131;53.454;-6.180;2023-03-03T03:50:58;102984.00;;;5.89;72.76
46430;BME280;32131;53.454;-6.180;2023-03-03T03:53:26;102995.13;;;5.90;72.59
46430;BME280;32131;53.454;-6.180;2023-03-03T03:55:55;102991.81;;;5.91;72.72
46430;BME280;32131;53.454;-6.180;2023-03-03T03:58:26;102981.53;;;5.91;73.13
46430;BME280;32131;53.454;-6.180;2023-03-03T04:00:54;102990.00;;;5.90;73.04
46430;BME280;32131;53.454;-6.180;2023-03-03T04:03:22;102989.00;;;5.88;72.81
46430;BME280;32131;53.454;-6.180;2023-03-03T04:05:52;102983.78;;;5.86;73.23
46430;BME280;32131;53.454;-6.180;2023-03-03T04:08:21;102979.44;;;5.85;73.41
46430;BME280;32131;53.454;-6.180;2023-03-03T04:10:49;102982.00;;;5.85;73.41
46430;BME280;32131;53.454;-6.180;2023-03-03T04:13:17;102984.56;;;5.85;73.49
46430;BME280;32131;53.454;-6.180;2023-03-03T04:15:45;102984.47;;;5.83;73.85
46430;BME280;32131;53.454;-6.180;2023-03-03T04:18:13;102987.69;;;5.81;73.96
46430;BME280;32131;53.454;-6.180;2023-03-03T04:20:41;102991.03;;;5.80;74.08
46430;BME280;32131;53.454;-6.180;2023-03-03T04:23:11;102986.69;;;5.79;74.25
46430;BME280;32131;53.454;-6.180;2023-03-03T04:25:40;102989.34;;;5.80;74.33
46430;BME280;32131;53.454;-6.180;2023-03-03T04:28:08;102996.28;;;5.81;74.46
46430;BME280;32131;53.454;-6.180;2023-03-03T04:30:36;102994.72;;;5.83;74.24
46430;BME280;32131;53.454;-6.180;2023-03-03T04:33:05;102997.19;;;5.82;74.41
46430;BME280;32131;53.454;-6.180;2023-03-03T04:35:33;102992.84;;;5.81;74.56
46430;BME280;32131;53.454;-6.180;2023-03-03T04:38:01;102996.41;;;5.83;74.61
46430;BME280;32131;53.454;-6.180;2023-03-03T04:40:32;102994.63;;;5.82;74.64
46430;BME280;32131;53.454;-6.180;2023-03-03T04:43:00;102993.72;;;5.81;74.74
46430;BME280;32131;53.454;-6.180;2023-03-03T04:45:28;102999.63;;;5.80;74.78
46430;BME280;32131;53.454;-6.180;2023-03-03T04:47:56;102997.72;;;5.78;75.00
46430;BME280;32131;53.454;-6.180;2023-03-03T04:50:24;102998.50;;;5.77;75.31
46430;BME280;32131;53.454;-6.180;2023-03-03T04:52:53;103005.09;;;5.73;75.51
46430;BME280;32131;53.454;-6.180;2023-03-03T04:55:21;102997.53;;;5.75;75.53
46430;BME280;32131;53.454;-6.180;2023-03-03T04:57:52;103000.88;;;5.74;75.75
46430;BME280;32131;53.454;-6.180;2023-03-03T05:00:20;102994.84;;;5.73;76.00
46430;BME280;32131;53.454;-6.180;2023-03-03T05:02:48;103001.66;;;5.73;76.00
46430;BME280;32131;53.454;-6.180;2023-03-03T05:05:17;102993.81;;;5.71;76.15
46430;BME280;32131;53.454;-6.180;2023-03-03T05:07:45;102999.09;;;5.73;76.17
46430;BME280;32131;53.454;-6.180;2023-03-03T05:10:13;103001.41;;;5.70;76.57
46430;BME280;32131;53.454;-6.180;2023-03-03T05:12:42;102999.88;;;5.72;76.50
46430;BME280;32131;53.454;-6.180;2023-03-03T05:15:12;102997.28;;;5.72;76.55
46430;BME280;32131;53.454;-6.180;2023-03-03T05:17:40;102995.63;;;5.72;76.85
46430;BME280;32131;53.454;-6.180;2023-03-03T05:20:10;102996.38;;;5.71;76.91
46430;BME280;32131;53.454;-6.180;2023-03-03T05:22:39;103001.41;;;5.70;76.99
46430;BME280;32131;53.454;-6.180;2023-03-03T05:25:07;103000.75;;;5.72;77.01
46430;BME280;32131;53.454;-6.180;2023-03-03T05:27:38;103002.31;;;5.70;77.29
46430;BME280;32131;53.454;-6.180;2023-03-03T05:30:07;103003.19;;;5.71;77.21
46430;BME280;32131;53.454;-6.180;2023-03-03T05:32:37;102995.63;;;5.72;77.35
46430;BME280;32131;53.454;-6.180;2023-03-03T05:35:06;102999.09;;;5.73;77.40
46430;BME280;32131;53.454;-6.180;2023-03-03T05:37:34;103005.88;;;5.72;77.50
46430;BME280;32131;53.454;-6.180;2023-03-03T05:40:02;103006.00;;;5.74;77.48
46430;BME280;32131;53.454;-6.180;2023-03-03T05:42:31;103000.97;;;5.75;77.68
46430;BME280;32131;53.454;-6.180;2023-03-03T05:44:59;102998.41;;;5.75;77.86
46430;BME280;32131;53.454;-6.180;2023-03-03T05:47:28;102996.53;;;5.73;77.90
46430;BME280;32131;53.454;-6.180;2023-03-03T05:49:57;102994.72;;;5.72;78.14
46430;BME280;32131;53.454;-6.180;2023-03-03T05:52:26;102991.41;;;5.73;78.21
46430;BME280;32131;53.454;-6.180;2023-03-03T05:54:55;102998.31;;;5.74;78.29
46430;BME280;32131;53.454;-6.180;2023-03-03T05:57:23;102996.72;;;5.76;78.15
46430;BME280;32131;53.454;-6.180;2023-03-03T05:59:51;102996.72;;;5.76;78.51
46430;BME280;32131;53.454;-6.180;2023-03-03T06:02:19;102999.28;;;5.76;78.51
46430;BME280;32131;53.454;-6.180;2023-03-03T06:04:47;102994.97;;;5.75;78.53
46430;BME280;32131;53.454;-6.180;2023-03-03T06:07:17;103000.09;;;5.75;78.83
46430;BME280;32131;53.454;-6.180;2023-03-03T06:09:45;102995.16;;;5.78;78.70
46430;BME280;32131;53.454;-6.180;2023-03-03T06:12:13;102998.50;;;5.77;78.98
46430;BME280;32131;53.454;-6.180;2023-03-03T06:14:41;102992.50;;;5.76;78.98
46430;BME280;32131;53.454;-6.180;2023-03-03T06:17:09;102993.50;;;5.78;78.93
46430;BME280;32131;53.454;-6.180;2023-03-03T06:19:37;102996.06;;;5.78;79.02
46430;BME280;32131;53.454;-6.180;2023-03-03T06:22:07;102996.06;;;5.78;79.43
46430;BME280;32131;53.454;-6.180;2023-03-03T06:24:37;102994.28;;;5.77;79.37
46430;BME280;32131;53.454;-6.180;2023-03-03T06:27:05;102997.72;;;5.78;79.50
46430;BME280;32131;53.454;-6.180;2023-03-03T06:29:33;102995.41;;;5.81;79.45
46430;BME280;32131;53.454;-6.180;2023-03-03T06:32:01;102997.72;;;5.78;79.82
46430;BME280;32131;53.454;-6.180;2023-03-03T06:34:29;102990.81;;;5.77;79.95
46430;BME280;32131;53.454;-6.180;2023-03-03T06:36:57;102999.41;;;5.77;80.04
46430;BME280;32131;53.454;-6.180;2023-03-03T06:39:26;102999.41;;;5.77;80.25
46430;BME280;32131;53.454;-6.180;2023-03-03T06:41:56;103003.88;;;5.80;80.01
46430;BME280;32131;53.454;-6.180;2023-03-03T06:44:24;103002.06;;;5.79;80.19
46430;BME280;32131;53.454;-6.180;2023-03-03T06:46:54;103006.97;;;5.76;80.87
46430;BME280;32131;53.454;-6.180;2023-03-03T06:49:24;103006.09;;;5.75;81.07
46430;BME280;32131;53.454;-6.180;2023-03-03T06:51:52;103010.44;;;5.76;80.89
46430;BME280;32131;53.454;-6.180;2023-03-03T06:54:26;103013.00;;;5.76;81.41
46430;BME280;32131;53.454;-6.180;2023-03-03T06:57:00;103016.59;;;5.78;81.38
46430;BME280;32131;53.454;-6.180;2023-03-03T06:59:34;103015.91;;;5.81;81.18
46430;BME280;32131;53.454;-6.180;2023-03-03T07:02:12;103022.03;;;5.83;81.12
46430;BME280;32131;53.454;-6.180;2023-03-03T07:04:42;103024.38;;;5.80;81.52
46430;BME280;32131;53.454;-6.180;2023-03-03T07:07:16;103030.38;;;5.80;81.68
46430;BME280;32131;53.454;-6.180;2023-03-03T07:09:47;103024.59;;;5.83;81.63
46430;BME280;32131;53.454;-6.180;2023-03-03T07:12:18;103034.06;;;5.84;81.47
46430;BME280;32131;53.454;-6.180;2023-03-03T07:14:49;103031.50;;;5.84;81.30
46430;BME280;32131;53.454;-6.180;2023-03-03T07:17:23;103035.63;;;5.82;81.56
46430;BME280;32131;53.454;-6.180;2023-03-03T07:19:52;103034.88;;;5.83;81.76
46430;BME280;32131;53.454;-6.180;2023-03-03T07:22:23;103037.53;;;5.85;81.72
46430;BME280;32131;53.454;-6.180;2023-03-03T07:24:53;103032.50;;;5.86;81.83
46430;BME280;32131;53.454;-6.180;2023-03-03T07:27:27;103034.28;;;5.87;82.00
46430;BME280;32131;53.454;-6.180;2023-03-03T07:30:16;103041.97;;;5.87;82.18
46430;BME280;32131;53.454;-6.180;2023-03-03T07:32:51;103049.44;;;5.84;82.57
46430;BME280;32131;53.454;-6.180;2023-03-03T07:35:40;103038.31;;;5.83;82.71
46430;BME280;32131;53.454;-6.180;2023-03-03T07:38:16;103047.09;;;5.87;82.54
46430;BME280;32131;53.454;-6.180;2023-03-03T07:40:48;103050.69;;;5.89;82.56
46430;BME280;32131;53.454;-6.180;2023-03-03T07:43:30;103054.91;;;5.89;82.75
46430;BME280;32131;53.454;-6.180;2023-03-03T07:48:44;103058.72;;;5.82;83.40
46430;BME280;32131;53.454;-6.180;2023-03-03T07:51:17;103066.06;;;5.77;83.97
46430;BME280;32131;53.454;-6.180;2023-03-03T07:53:48;103066.06;;;5.77;84.10
46430;BME280;32131;53.454;-6.180;2023-03-03T07:56:26;103064.50;;;5.79;84.16
46430;BME280;32131;53.454;-6.180;2023-03-03T07:58:57;103074.09;;;5.82;84.33
46430;BME280;32131;53.454;-6.180;2023-03-03T08:01:35;103074.31;;;5.85;84.16
46430;BME280;32131;53.454;-6.180;2023-03-03T08:04:16;103075.41;;;5.89;83.93
46430;BME280;32131;53.454;-6.180;2023-03-03T08:06:50;103075.53;;;5.90;84.25
46430;BME280;32131;53.454;-6.180;2023-03-03T08:09:37;103073.97;;;5.92;84.28
46430;BME280;32131;53.454;-6.180;2023-03-03T08:12:29;103080.09;;;5.94;84.46
46430;BME280;32131;53.454;-6.180;2023-03-03T08:15:15;103077.44;;;5.93;84.72
46430;BME280;32131;53.454;-6.180;2023-03-03T08:17:45;103074.75;;;5.91;84.98
46430;BME280;32131;53.454;-6.180;2023-03-03T08:20:42;103081.66;;;5.92;85.08
46430;BME280;32131;53.454;-6.180;2023-03-03T08:23:12;103074.97;;;5.94;85.11
46430;BME280;32131;53.454;-6.180;2023-03-03T08:25:41;103084.34;;;5.94;84.62
46430;BME280;32131;53.454;-6.180;2023-03-03T08:28:10;103083.56;;;5.95;84.62
46430;BME280;32131;53.454;-6.180;2023-03-03T08:30:40;103080.31;;;5.97;84.25
46430;BME280;32131;53.454;-6.180;2023-03-03T08:33:08;103091.72;;;6.01;84.30
46430;BME280;32131;53.454;-6.180;2023-03-03T08:35:36;103086.84;;;6.04;83.94
46430;BME280;32131;53.454;-6.180;2023-03-03T08:38:05;103095.50;;;6.06;84.08
46430;BME280;32131;53.454;-6.180;2023-03-03T08:40:34;103091.38;;;6.08;83.92
46430;BME280;32131;53.454;-6.180;2023-03-03T08:43:02;103093.25;;;6.11;83.81
46430;BME280;32131;53.454;-6.180;2023-03-03T08:45:32;103088.38;;;6.14;83.71
46430;BME280;32131;53.454;-6.180;2023-03-03T08:48:02;103090.34;;;6.18;83.38
46430;BME280;32131;53.454;-6.180;2023-03-03T08:50:32;103100.41;;;6.27;82.99
46430;BME280;32131;53.454;-6.180;2023-03-03T08:53:01;103103.47;;;6.35;82.94
46430;BME280;32131;53.454;-6.180;2023-03-03T08:55:29;103107.72;;;6.46;82.43
46430;BME280;32131;53.454;-6.180;2023-03-03T08:57:57;103097.41;;;6.58;81.88
46430;BME280;32131;53.454;-6.180;2023-03-03T09:00:25;103104.50;;;6.74;81.42
46430;BME280;32131;53.454;-6.180;2023-03-03T09:02:54;103098.41;;;6.85;80.36
46430;BME280;32131;53.454;-6.180;2023-03-03T09:05:24;103102.63;;;6.97;79.74
46430;BME280;32131;53.454;-6.180;2023-03-03T09:07:53;103105.13;;;7.08;79.04
46430;BME280;32131;53.454;-6.180;2023-03-03T09:10:24;103106.84;;;7.21;78.66
46430;BME280;32131;53.454;-6.180;2023-03-03T09:12:53;103113.28;;;7.28;78.17
46430;BME280;32131;53.454;-6.180;2023-03-03T09:15:25;103113.59;;;7.33;78.30
46430;BME280;32131;53.454;-6.180;2023-03-03T09:17:57;103103.94;;;7.42;78.18
46430;BME280;32131;53.454;-6.180;2023-03-03T09:20:35;103113.03;;;7.50;77.81
46430;BME280;32131;53.454;-6.180;2023-03-03T09:23:27;103113.44;;;7.57;77.24
46430;BME280;32131;53.454;-6.180;2023-03-03T09:25:56;103119.47;;;7.57;77.08
46430;BME280;32131;53.454;-6.180;2023-03-03T09:28:28;103120.66;;;7.62;76.68
46430;BME280;32131;53.454;-6.180;2023-03-03T09:30:58;103120.28;;;7.69;75.92
46430;BME280;32131;53.454;-6.180;2023-03-03T09:33:27;103124.53;;;7.82;75.63
46430;BME280;32131;53.454;-6.180;2023-03-03T09:36:02;103130.84;;;7.87;74.99
46430;BME280;32131;53.454;-6.180;2023-03-03T09:38:32;103129.56;;;7.81;74.63
46430;BME280;32131;53.454;-6.180;2023-03-03T09:41:21;103132.66;;;7.75;74.46
46430;BME280;32131;53.454;-6.180;2023-03-03T09:44:12;103137.00;;;7.76;74.38
46430;BME280;32131;53.454;-6.180;2023-03-03T09:46:57;103139.59;;;7.76;74.05
46430;BME280;32131;53.454;-6.180;2023-03-03T09:49:31;103142.25;;;7.78;74.10
46430;BME280;32131;53.454;-6.180;2023-03-03T09:52:18;103147.06;;;7.86;74.22
46430;BME280;32131;53.454;-6.180;2023-03-03T09:54:56;103145.09;;;7.96;73.99
46430;BME280;32131;53.454;-6.180;2023-03-03T09:57:35;103149.47;;;7.97;73.70
46430;BME280;32131;53.454;-6.180;2023-03-03T10:00:21;103146.81;;;7.95;73.56
46430;BME280;32131;53.454;-6.180;2023-03-03T10:03:07;103149.66;;;7.86;73.97
46430;BME280;32131;53.454;-6.180;2023-03-03T10:05:44;103148.69;;;7.84;74.24
46430;BME280;32131;53.454;-6.180;2023-03-03T10:08:35;103153.53;;;7.80;74.50
46430;BME280;32131;53.454;-6.180;2023-03-03T10:11:14;103156.75;;;7.77;74.26
46430;BME280;32131;53.454;-6.180;2023-03-03T10:14:10;103150.66;;;7.75;74.27
46430;BME280;32131;53.454;-6.180;2023-03-03T10:16:52;103153.84;;;7.84;74.69
46430;BME280;32131;53.454;-6.180;2023-03-03T10:19:43;103159.75;;;7.83;74.63
46430;BME280;32131;53.454;-6.180;2023-03-03T10:22:20;103171.94;;;7.86;75.00
46430;BME280;32131;53.454;-6.180;2023-03-03T10:25:06;103169.75;;;7.79;75.70
46430;BME280;32131;53.454;-6.180;2023-03-03T10:27:46;103168.53;;;7.74;76.26
46430;BME280;32131;53.454;-6.180;2023-03-03T10:30:27;103175.75;;;7.66;77.09
46430;BME280;32131;53.454;-6.180;2023-03-03T10:33:15;103179.50;;;7.58;77.13
46430;BME280;32131;53.454;-6.180;2023-03-03T10:36:01;103176.03;;;7.57;77.58
46430;BME280;32131;53.454;-6.180;2023-03-03T10:38:43;103182.16;;;7.59;78.26
46430;BME280;32131;53.454;-6.180;2023-03-03T10:41:28;103178.03;;;7.61;78.08
46430;BME280;32131;53.454;-6.180;2023-03-03T10:44:13;103188.00;;;7.57;78.35
46430;BME280;32131;53.454;-6.180;2023-03-03T10:47:05;103192.53;;;7.61;78.65
46430;BME280;32131;53.454;-6.180;2023-03-03T10:49:50;103189.63;;;7.68;78.55
46430;BME280;32131;53.454;-6.180;2023-03-03T10:52:32;103191.19;;;7.79;78.07
46430;BME280;32131;53.454;-6.180;2023-03-03T10:55:18;103195.47;;;7.92;78.03
46430;BME280;32131;53.454;-6.180;2023-03-03T10:58:11;103193.50;;;8.01;77.88
46430;BME280;32131;53.454;-6.180;2023-03-03T11:00:46;103195.97;;;7.86;77.87
46430;BME280;32131;53.454;-6.180;2023-03-03T11:03:45;103198.78;;;7.64;78.87
46430;BME280;32131;53.454;-6.180;2023-03-03T11:06:24;103195.91;;;7.60;79.67
46430;BME280;32131;53.454;-6.180;2023-03-03T11:08:55;103195.31;;;7.50;80.76
46430;BME280;32131;53.454;-6.180;2023-03-03T11:11:34;103208.03;;;7.49;81.65
46430;BME280;32131;53.454;-6.180;2023-03-03T11:14:11;103199.59;;;7.38;82.34
46430;BME280;32131;53.454;-6.180;2023-03-03T11:16:47;103208.25;;;7.27;83.67
46430;BME280;32131;53.454;-6.180;2023-03-03T11:19:37;103205.28;;;7.20;84.38
46430;BME280;32131;53.454;-6.180;2023-03-03T11:22:17;103205.34;;;7.34;85.23
46430;BME280;32131;53.454;-6.180;2023-03-03T11:24:59;103212.22;;;7.47;85.94
46430;BME280;32131;53.454;-6.180;2023-03-03T11:27:39;103219.47;;;7.40;85.81
46430;BME280;32131;53.454;-6.180;2023-03-03T11:30:31;103217.88;;;7.29;86.40
46430;BME280;32131;53.454;-6.180;2023-03-03T11:33:08;103211.19;;;7.19;87.34
46430;BME280;32131;53.454;-6.180;2023-03-03T11:35:43;103217.94;;;7.05;88.49
46430;BME280;32131;53.454;-6.180;2023-03-03T11:38:32;103217.19;;;6.95;89.39
46430;BME280;32131;53.454;-6.180;2023-03-03T11:41:07;103223.06;;;7.05;90.25
46430;BME280;32131;53.454;-6.180;2023-03-03T11:43:50;103222.09;;;7.29;89.86
46430;BME280;32131;53.454;-6.180;2023-03-03T11:46:24;103220.47;;;7.43;89.85
46430;BME280;32131;53.454;-6.180;2023-03-03T11:48:57;103224.19;;;7.60;89.50
46430;BME280;32131;53.454;-6.180;2023-03-03T11:51:36;103230.78;;;7.68;88.90
46430;BME280;32131;53.454;-6.180;2023-03-03T11:54:13;103232.34;;;7.79;88.86
46430;BME280;32131;53.454;-6.180;2023-03-03T11:56:45;103228.59;;;7.74;88.68
46430;BME280;32131;53.454;-6.180;2023-03-03T11:59:41;103228.34;;;7.58;88.42
46430;BME280;32131;53.454;-6.180;2023-03-03T12:02:51;103234.44;;;7.46;88.18
46430;BME280;32131;53.454;-6.180;2023-03-03T12:05:32;103228.47;;;7.34;87.83
46430;BME280;32131;53.454;-6.180;2023-03-03T12:08:16;103228.03;;;7.28;87.57
46430;BME280;32131;53.454;-6.180;2023-03-03T12:10:51;103228.94;;;7.28;87.44
46430;BME280;32131;53.454;-6.180;2023-03-03T12:13:29;103231.38;;;7.38;87.32
46430;BME280;32131;53.454;-6.180;2023-03-03T12:16:08;103226.34;;;7.53;86.77
46430;BME280;32131;53.454;-6.180;2023-03-03T12:18:55;103224.25;;;7.73;86.39
46430;BME280;32131;53.454;-6.180;2023-03-03T12:21:40;103224.47;;;7.90;85.71
46430;BME280;32131;53.454;-6.180;2023-03-03T12:24:20;103214.00;;;8.00;83.88
46430;BME280;32131;53.454;-6.180;2023-03-03T12:26:58;103220.72;;;8.11;82.75
46430;BME280;32131;53.454;-6.180;2023-03-03T12:29:36;103218.75;;;8.21;82.43
46430;BME280;32131;53.454;-6.180;2023-03-03T12:32:18;103218.25;;;8.26;81.51
46430;BME280;32131;53.454;-6.180;2023-03-03T12:34:54;103225.69;;;8.35;81.05
46430;BME280;32131;53.454;-6.180;2023-03-03T12:37:39;103220.16;;;8.42;80.63
46430;BME280;32131;53.454;-6.180;2023-03-03T12:40:18;103215.41;;;8.48;80.08
46430;BME280;32131;53.454;-6.180;2023-03-03T12:42:55;103209.47;;;8.49;79.98
46430;BME280;32131;53.454;-6.180;2023-03-03T12:45:36;103217.59;;;8.56;80.44
46430;BME280;32131;53.454;-6.180;2023-03-03T12:48:15;103210.34;;;8.63;80.37
46430;BME280;32131;53.454;-6.180;2023-03-03T12:50:54;103210.81;;;8.71;79.58
46430;BME280;32131;53.454;-6.180;2023-03-03T12:53:44;103206.63;;;9.15;78.13
46430;BME280;32131;53.454;-6.180;2023-03-03T12:56:23;103207.59;;;9.60;76.98
46430;BME280;32131;53.454;-6.180;2023-03-03T12:58:59;103202.44;;;9.90;76.08
46430;BME280;32131;53.454;-6.180;2023-03-03T13:01:40;103203.16;;;10.03;75.02
46430;BME280;32131;53.454;-6.180;2023-03-03T13:04:15;103198.16;;;9.91;73.95
46430;BME280;32131;53.454;-6.180;2023-03-03T13:06:51;103192.94;;;9.89;73.60
46430;BME280;32131;53.454;-6.180;2023-03-03T13:09:31;103185.59;;;9.97;73.04
46430;BME280;32131;53.454;-6.180;2023-03-03T13:12:14;103186.78;;;10.02;72.31
46430;BME280;32131;53.454;-6.180;2023-03-03T13:14:50;103183.94;;;9.98;71.51
46430;BME280;32131;53.454;-6.180;2023-03-03T13:17:24;103178.84;;;9.99;70.96
46430;BME280;32131;53.454;-6.180;2023-03-03T13:19:56;103181.78;;;9.90;70.37
46430;BME280;32131;53.454;-6.180;2023-03-03T13:22:36;103176.72;;;9.92;70.08
46430;BME280;32131;53.454;-6.180;2023-03-03T13:25:20;103182.41;;;10.01;69.37
46430;BME280;32131;53.454;-6.180;2023-03-03T13:28:00;103174.38;;;10.12;68.96